sensor_id;sensor_type;location;lat;lon;timestamp;pressure;altitude;pressure_sealevel;temperature;humidity
21742;BME280;11033;47.490;11.116;2023-02-11T00:00:34;94913.38;;;-3.30;63.29
21742;BME280;11033;47.490;11.116;2023-02-11T00:02:59;94922.78;;;-3.29;62.87
21742;BME280;11033;47.490;11.116;2023-02-11T00:05:24;94918.78;;;-3.36;64.02
21742;BME280;11033;47.490;11.116;2023-02-11T00:07:49;94926.13;;;-3.47;66.17
21742;BME280;11033;47.490;11.116;2023-02-11T00:10:14;94908.16;;;-3.48;64.91
21742;BME280;11033;47.490;11.116;2023-02-11T00:12:40;94922.56;;;-3.44;64.41
21742;BME280;11033;47.490;11.116;2023-02-11T00:15:07;94920.91;;;-3.45;64.28
21742;BME280;11033;47.490;11.116;2023-02-11T00:17:32;94919.16;;;-3.45;64.97
21742;BME280;11033;47.490;11.116;2023-02-11T00:19:57;94924.19;;;-3.42;62.25
21742;BME280;11033;47.490;11.116;2023-02-11T00:22:22;94917.38;;;-3.43;63.86
21742;BME280;11033;47.490;11.116;2023-02-11T00:24:48;94927.66;;;-3.43;63.33
21742;BME280;11033;47.490;11.116;2023-02-11T00:27:13;94935.72;;;-3.51;64.28
21742;BME280;11033;47.490;11.116;2023-02-11T00:29:38;94934.34;;;-3.59;65.02
21742;BME280;11033;47.490;11.116;2023-02-11T00:32:04;94941.59;;;-3.69;65.70
21742;BME280;11033;47.490;11.116;2023-02-11T00:34:30;94943.22;;;-3.66;66.94
21742;BME280;11033;47.490;11.116;2023-02-11T00:36:55;94945.19;;;-3.73;66.20
21742;BME280;11033;47.490;11.116;2023-02-11T00:39:21;94941.00;;;-3.75;67.41
21742;BME280;11033;47.490;11.116;2023-02-11T00:41:46;94951.28;;;-3.75;66.94
21742;BME280;11033;47.490;11.116;2023-02-11T00:44:11;94944.47;;;-3.76;65.75
21742;BME280;11033;47.490;11.116;2023-02-11T00:46:36;94939.31;;;-3.76;65.23
21742;BME280;11033;47.490;11.116;2023-02-11T00:49:01;94941.25;;;-3.81;66.83
21742;BME280;11033;47.490;11.116;2023-02-11T00:51:27;94944.19;;;-3.92;68.08
21742;BME280;11033;47.490;11.116;2023-02-11T00:53:52;94949.81;;;-3.81;66.59
21742;BME280;11033;47.490;11.116;2023-02-11T00:56:17;94944.09;;;-3.67;64.05
21742;BME280;11033;47.490;11.116;2023-02-11T00:58:43;94952.31;;;-3.79;66.11
21742;BME280;11033;47.490;11.116;2023-02-11T01:01:08;94952.50;;;-3.84;65.89
21742;BME280;11033;47.490;11.116;2023-02-11T01:03:34;94960.16;;;-3.83;65.41
21742;BME280;11033;47.490;11.116;2023-02-11T01:06:01;94958.47;;;-3.84;65.91
21742;BME280;11033;47.490;11.116;2023-02-11T01:08:26;94961.06;;;-3.84;64.22
21742;BME280;11033;47.490;11.116;2023-02-11T01:10:55;94959.78;;;-3.73;64.49
21742;BME280;11033;47.490;11.116;2023-02-11T01:13:21;94948.44;;;-3.90;65.82
21742;BME280;11033;47.490;11.116;2023-02-11T01:15:46;94958.03;;;-3.95;66.24
21742;BME280;11033;47.490;11.116;2023-02-11T01:18:11;94951.50;;;-4.03;66.44
21742;BME280;11033;47.490;11.116;2023-02-11T01:20:37;94947.06;;;-4.00;65.46
21742;BME280;11033;47.490;11.116;2023-02-11T01:23:02;94941.38;;;-3.85;63.74
21742;BME280;11033;47.490;11.116;2023-02-11T01:25:27;94937.22;;;-3.89;64.12
21742;BME280;11033;47.490;11.116;2023-02-11T01:27:52;94940.72;;;-3.91;64.99
21742;BME280;11033;47.490;11.116;2023-02-11T01:30:17;94941.47;;;-3.88;63.58
21742;BME280;11033;47.490;11.116;2023-02-11T01:32:43;94943.28;;;-3.90;63.91
21742;BME280;11033;47.490;11.116;2023-02-11T01:35:08;94941.09;;;-4.00;64.91
21742;BME280;11033;47.490;11.116;2023-02-11T01:37:33;94936.06;;;-4.03;65.37
21742;BME280;11033;47.490;11.116;2023-02-11T01:40:00;94933.56;;;-4.05;65.66
21742;BME280;11033;47.490;11.116;2023-02-11T01:42:25;94931.63;;;-4.00;65.09
21742;BME280;11033;47.490;11.116;2023-02-11T01:44:51;94930.31;;;-4.10;65.42
21742;BME280;11033;47.490;11.116;2023-02-11T01:47:16;94927.56;;;-4.05;64.46
21742;BME280;11033;47.490;11.116;2023-02-11T01:49:46;94921.34;;;-4.00;63.93
21742;BME280;11033;47.490;11.116;2023-02-11T01:54:53;94903.56;;;-4.06;63.98
21742;BME280;11033;47.490;11.116;2023-02-11T01:57:38;94911.06;;;-4.00;63.20
21742;BME280;11033;47.490;11.116;2023-02-11T02:04:59;94903.16;;;-4.17;65.14
21742;BME280;11033;47.490;11.116;2023-02-11T02:07:35;94895.50;;;-4.19;64.28
21742;BME280;11033;47.490;11.116;2023-02-11T02:10:04;94886.47;;;-4.07;63.67
21742;BME280;11033;47.490;11.116;2023-02-11T02:12:31;94890.72;;;-4.06;64.11
21742;BME280;11033;47.490;11.116;2023-02-11T02:17:42;94890.34;;;-3.97;63.00
21742;BME280;11033;47.490;11.116;2023-02-11T02:20:16;94882.69;;;-3.98;62.24
21742;BME280;11033;47.490;11.116;2023-02-11T02:22:57;94873.66;;;-4.08;63.38
21742;BME280;11033;47.490;11.116;2023-02-11T02:25:45;94885.56;;;-4.06;62.69
21742;BME280;11033;47.490;11.116;2023-02-11T02:28:17;94881.81;;;-4.19;64.24
21742;BME280;11033;47.490;11.116;2023-02-11T02:33:32;94879.53;;;-4.05;64.02
21742;BME280;11033;47.490;11.116;2023-02-11T02:38:29;94869.78;;;-3.97;62.33
21742;BME280;11033;47.490;11.116;2023-02-11T02:41:12;94865.88;;;-4.07;63.66
21742;BME280;11033;47.490;11.116;2023-02-11T02:43:41;94858.53;;;-4.16;63.19
21742;BME280;11033;47.490;11.116;2023-02-11T02:46:09;94858.69;;;-3.99;62.01
21742;BME280;11033;47.490;11.116;2023-02-11T02:48:34;94851.84;;;-4.20;64.09
21742;BME280;11033;47.490;11.116;2023-02-11T02:51:09;94855.66;;;-4.30;65.11
21742;BME280;11033;47.490;11.116;2023-02-11T02:53:41;94847.41;;;-4.38;66.16
21742;BME280;11033;47.490;11.116;2023-02-11T02:56:13;94852.66;;;-4.41;66.42
21742;BME280;11033;47.490;11.116;2023-02-11T03:01:34;94839.88;;;-4.21;64.76
21742;BME280;11033;47.490;11.116;2023-02-11T03:09:11;94848.19;;;-4.36;65.06
21742;BME280;11033;47.490;11.116;2023-02-11T03:11:38;94845.00;;;-4.43;65.05
21742;BME280;11033;47.490;11.116;2023-02-11T03:14:04;94840.22;;;-4.30;63.90
21742;BME280;11033;47.490;11.116;2023-02-11T03:16:30;94847.47;;;-4.18;63.65
21742;BME280;11033;47.490;11.116;2023-02-11T03:19:03;94848.84;;;-4.31;64.38
21742;BME280;11033;47.490;11.116;2023-02-11T03:21:29;94851.19;;;-4.25;63.41
21742;BME280;11033;47.490;11.116;2023-02-11T03:23:56;94849.09;;;-4.37;64.17
21742;BME280;11033;47.490;11.116;2023-02-11T03:26:27;94843.09;;;-4.38;65.13
21742;BME280;11033;47.490;11.116;2023-02-11T03:31:26;94840.94;;;-4.49;65.72
21742;BME280;11033;47.490;11.116;2023-02-11T03:33:59;94833.41;;;-4.53;65.67
21742;BME280;11033;47.490;11.116;2023-02-11T03:36:29;94830.84;;;-4.53;65.34
21742;BME280;11033;47.490;11.116;2023-02-11T03:38:57;94837.59;;;-4.51;64.87
21742;BME280;11033;47.490;11.116;2023-02-11T03:41:24;94836.81;;;-4.53;64.14
21742;BME280;11033;47.490;11.116;2023-02-11T03:43:51;94840.28;;;-4.54;64.93
21742;BME280;11033;47.490;11.116;2023-02-11T03:46:18;94833.28;;;-4.50;64.73
21742;BME280;11033;47.490;11.116;2023-02-11T03:48:45;94847.72;;;-4.46;64.66
21742;BME280;11033;47.490;11.116;2023-02-11T03:51:13;94849.75;;;-4.56;65.28
21742;BME280;11033;47.490;11.116;2023-02-11T03:53:39;94842.63;;;-4.48;64.59
21742;BME280;11033;47.490;11.116;2023-02-11T03:56:05;94838.66;;;-4.56;63.76
21742;BME280;11033;47.490;11.116;2023-02-11T03:58:33;94834.44;;;-4.59;64.19
21742;BME280;11033;47.490;11.116;2023-02-11T04:00:58;94827.44;;;-4.54;63.94
21742;BME280;11033;47.490;11.116;2023-02-11T04:03:25;94829.94;;;-4.52;63.40
21742;BME280;11033;47.490;11.116;2023-02-11T04:05:50;94824.28;;;-4.62;66.24
21742;BME280;11033;47.490;11.116;2023-02-11T04:08:15;94829.66;;;-4.68;66.22
21742;BME280;11033;47.490;11.116;2023-02-11T04:10:41;94828.78;;;-4.67;66.03
21742;BME280;11033;47.490;11.116;2023-02-11T04:13:06;94820.22;;;-4.67;66.48
21742;BME280;11033;47.490;11.116;2023-02-11T04:15:31;94802.53;;;-4.75;65.20
21742;BME280;11033;47.490;11.116;2023-02-11T04:17:56;94811.78;;;-4.71;65.40
21742;BME280;11033;47.490;11.116;2023-02-11T04:20:21;94813.31;;;-4.89;66.56
21742;BME280;11033;47.490;11.116;2023-02-11T04:22:47;94811.47;;;-4.85;65.53
21742;BME280;11033;47.490;11.116;2023-02-11T04:25:12;94824.31;;;-4.85;66.45
21742;BME280;11033;47.490;11.116;2023-02-11T04:27:37;94822.41;;;-4.80;65.71
21742;BME280;11033;47.490;11.116;2023-02-11T04:30:03;94822.38;;;-4.79;65.72
21742;BME280;11033;47.490;11.116;2023-02-11T04:32:28;94820.50;;;-4.75;65.07
21742;BME280;11033;47.490;11.116;2023-02-11T04:34:53;94819.19;;;-4.85;65.50
21742;BME280;11033;47.490;11.116;2023-02-11T04:37:19;94826.00;;;-4.84;65.17
21742;BME280;11033;47.490;11.116;2023-02-11T04:39:44;94824.28;;;-4.62;64.45
21742;BME280;11033;47.490;11.116;2023-02-11T04:42:10;94829.72;;;-4.69;64.68
21742;BME280;11033;47.490;11.116;2023-02-11T04:44:35;94824.59;;;-4.69;64.18
21742;BME280;11033;47.490;11.116;2023-02-11T04:47:00;94828.44;;;-4.81;65.78
21742;BME280;11033;47.490;11.116;2023-02-11T04:49:25;94833.47;;;-4.78;64.49
21742;BME280;11033;47.490;11.116;2023-02-11T04:51:50;94830.13;;;-4.80;65.42
21742;BME280;11033;47.490;11.116;2023-02-11T04:54:16;94835.53;;;-4.64;63.64
21742;BME280;11033;47.490;11.116;2023-02-11T04:56:41;94835.09;;;-4.52;64.01
21742;BME280;11033;47.490;11.116;2023-02-11T04:59:06;94849.75;;;-4.56;63.70
21742;BME280;11033;47.490;11.116;2023-02-11T05:01:31;94854.19;;;-4.59;62.73
21742;BME280;11033;47.490;11.116;2023-02-11T05:03:57;94837.59;;;-4.51;62.82
21742;BME280;11033;47.490;11.116;2023-02-11T05:06:22;94847.19;;;-4.56;62.53
21742;BME280;11033;47.490;11.116;2023-02-11T05:08:48;94843.75;;;-4.55;63.28
21742;BME280;11033;47.490;11.116;2023-02-11T05:11:14;94845.50;;;-4.55;62.59
21742;BME280;11033;47.490;11.116;2023-02-11T05:13:40;94845.75;;;-4.63;63.13
21742;BME280;11033;47.490;11.116;2023-02-11T05:16:05;94848.50;;;-4.67;63.91
21742;BME280;11033;47.490;11.116;2023-02-11T05:18:31;94855.00;;;-4.59;63.42
21742;BME280;11033;47.490;11.116;2023-02-11T05:20:56;94858.59;;;-4.63;63.22
21742;BME280;11033;47.490;11.116;2023-02-11T05:23:21;94865.66;;;-4.68;63.78
21742;BME280;11033;47.490;11.116;2023-02-11T05:25:47;94863.50;;;-4.57;63.61
21742;BME280;11033;47.490;11.116;2023-02-11T05:28:12;94875.09;;;-4.68;64.47
21742;BME280;11033;47.490;11.116;2023-02-11T05:30:37;94867.38;;;-4.68;64.21
21742;BME280;11033;47.490;11.116;2023-02-11T05:33:02;94870.56;;;-4.62;63.62
21742;BME280;11033;47.490;11.116;2023-02-11T05:35:27;94863.97;;;-4.69;64.02
21742;BME280;11033;47.490;11.116;2023-02-11T05:37:53;94873.19;;;-4.63;63.48
21742;BME280;11033;47.490;11.116;2023-02-11T05:40:18;94864.19;;;-4.75;64.11
21742;BME280;11033;47.490;11.116;2023-02-11T05:42:43;94868.44;;;-4.74;64.03
21742;BME280;11033;47.490;11.116;2023-02-11T05:45:08;94874.84;;;-4.62;64.52
21742;BME280;11033;47.490;11.116;2023-02-11T05:47:33;94866.19;;;-4.60;64.18
21742;BME280;11033;47.490;11.116;2023-02-11T05:49:58;94863.50;;;-4.57;63.58
21742;BME280;11033;47.490;11.116;2023-02-11T05:52:24;94872.03;;;-4.55;63.00
21742;BME280;11033;47.490;11.116;2023-02-11T05:54:49;94871.81;;;-4.49;62.82
21742;BME280;11033;47.490;11.116;2023-02-11T05:57:14;94865.09;;;-4.53;63.00
21742;BME280;11033;47.490;11.116;2023-02-11T05:59:40;94860.38;;;-4.65;64.19
21742;BME280;11033;47.490;11.116;2023-02-11T06:02:05;94864.09;;;-4.72;65.00
21742;BME280;11033;47.490;11.116;2023-02-11T06:04:32;94858.84;;;-4.69;64.47
21742;BME280;11033;47.490;11.116;2023-02-11T06:06:57;94864.81;;;-4.68;64.62
21742;BME280;11033;47.490;11.116;2023-02-11T06:09:22;94855.19;;;-4.63;63.81
21742;BME280;11033;47.490;11.116;2023-02-11T06:11:47;94850.50;;;-4.52;63.50
21742;BME280;11033;47.490;11.116;2023-02-11T06:14:12;94855.00;;;-4.59;63.18
21742;BME280;11033;47.490;11.116;2023-02-11T06:16:38;94848.66;;;-4.49;62.88
21742;BME280;11033;47.490;11.116;2023-02-11T06:19:03;94838.38;;;-4.49;62.66
21742;BME280;11033;47.490;11.116;2023-02-11T06:21:29;94835.81;;;-4.49;62.19
21742;BME280;11033;47.490;11.116;2023-02-11T06:23:54;94838.31;;;-4.47;62.57
21742;BME280;11033;47.490;11.116;2023-02-11T06:26:20;94842.50;;;-4.44;62.49
21742;BME280;11033;47.490;11.116;2023-02-11T06:28:45;94837.03;;;-4.59;nan
21742;BME280;11033;47.490;11.116;2023-02-11T06:31:10;94845.38;;;-4.52;63.95
21742;BME280;11033;47.490;11.116;2023-02-11T06:33:36;94833.66;;;-4.37;62.25
21742;BME280;11033;47.490;11.116;2023-02-11T06:36:01;94838.03;;;-4.39;62.86
21742;BME280;11033;47.490;11.116;2023-02-11T06:38:26;94839.56;;;-4.35;62.61
21742;BME280;11033;47.490;11.116;2023-02-11T06:40:52;94837.19;;;-4.40;63.06
21742;BME280;11033;47.490;11.116;2023-02-11T06:43:17;94830.19;;;-4.36;63.32
21742;BME280;11033;47.490;11.116;2023-02-11T06:45:42;94838.69;;;-4.34;63.61
21742;BME280;11033;47.490;11.116;2023-02-11T06:48:07;94839.34;;;-4.29;63.43
21742;BME280;11033;47.490;11.116;2023-02-11T06:50:33;94834.38;;;-4.12;62.79
21742;BME280;11033;47.490;11.116;2023-02-11T06:52:58;94829.22;;;-4.12;62.66
21742;BME280;11033;47.490;11.116;2023-02-11T06:55:23;94830.91;;;-4.11;62.79
21742;BME280;11033;47.490;11.116;2023-02-11T06:57:49;94829.25;;;-3.92;61.73
21742;BME280;11033;47.490;11.116;2023-02-11T07:00:14;94833.22;;;-3.83;61.73
21742;BME280;11033;47.490;11.116;2023-02-11T07:02:39;94834.06;;;-3.83;62.26
21742;BME280;11033;47.490;11.116;2023-02-11T07:05:05;94826.34;;;-3.83;62.36
21742;BME280;11033;47.490;11.116;2023-02-11T07:07:31;94819.38;;;-3.80;61.80
21742;BME280;11033;47.490;11.116;2023-02-11T07:09:56;94817.47;;;-3.75;62.56
21742;BME280;11033;47.490;11.116;2023-02-11T07:12:21;94824.16;;;-3.71;62.07
21742;BME280;11033;47.490;11.116;2023-02-11T07:14:46;94813.47;;;-3.62;63.40
21742;BME280;11033;47.490;11.116;2023-02-11T07:17:11;94803.75;;;-3.56;63.32
21742;BME280;11033;47.490;11.116;2023-02-11T07:19:37;94796.66;;;-3.51;63.33
21742;BME280;11033;47.490;11.116;2023-02-11T07:22:02;94797.38;;;-3.47;63.54
21742;BME280;11033;47.490;11.116;2023-02-11T07:24:27;94787.72;;;-3.42;63.83
21742;BME280;11033;47.490;11.116;2023-02-11T07:26:52;94787.94;;;-3.28;62.54
21742;BME280;11033;47.490;11.116;2023-02-11T07:29:18;94795.56;;;-3.25;62.32
21742;BME280;11033;47.490;11.116;2023-02-11T07:31:43;94790.91;;;-3.16;62.91
21742;BME280;11033;47.490;11.116;2023-02-11T07:34:08;94794.97;;;-2.92;62.43
21742;BME280;11033;47.490;11.116;2023-02-11T07:36:34;94800.75;;;-2.87;60.71
21742;BME280;11033;47.490;11.116;2023-02-11T07:39:00;94801.09;;;-2.76;60.67
21742;BME280;11033;47.490;11.116;2023-02-11T07:41:26;94798.72;;;-2.62;59.51
21742;BME280;11033;47.490;11.116;2023-02-11T07:43:51;94804.47;;;-2.55;59.29
21742;BME280;11033;47.490;11.116;2023-02-11T07:46:19;94802.06;;;-2.41;58.90
21742;BME280;11033;47.490;11.116;2023-02-11T07:48:44;94799.44;;;-2.39;58.92
21742;BME280;11033;47.490;11.116;2023-02-11T07:51:20;94803.41;;;-2.15;58.35
21742;BME280;11033;47.490;11.116;2023-02-11T07:53:47;94803.66;;;-2.02;58.51
21742;BME280;11033;47.490;11.116;2023-02-11T07:56:12;94817.19;;;-1.97;57.95
21742;BME280;11033;47.490;11.116;2023-02-11T07:58:38;94812.03;;;-1.97;58.41
21742;BME280;11033;47.490;11.116;2023-02-11T08:01:07;94821.03;;;-1.87;58.51
21742;BME280;11033;47.490;11.116;2023-02-11T08:03:33;94827.34;;;-1.75;58.12
21742;BME280;11033;47.490;11.116;2023-02-11T08:06:02;94825.22;;;-1.67;58.52
21742;BME280;11033;47.490;11.116;2023-02-11T08:08:27;94836.16;;;-1.62;58.20
21742;BME280;11033;47.490;11.116;2023-02-11T08:10:52;94843.28;;;-1.50;58.30
21742;BME280;11033;47.490;11.116;2023-02-11T08:13:18;94847.78;;;-1.53;58.42
21742;BME280;11033;47.490;11.116;2023-02-11T08:15:43;94837.13;;;-1.47;58.56
21742;BME280;11033;47.490;11.116;2023-02-11T08:18:08;94833.03;;;-1.51;59.31
21742;BME280;11033;47.490;11.116;2023-02-11T08:20:33;94830.28;;;-1.48;59.74
21742;BME280;11033;47.490;11.116;2023-02-11T08:22:59;94824.81;;;-1.42;59.86
21742;BME280;11033;47.490;11.116;2023-02-11T08:25:24;94809.41;;;-1.26;59.81
21742;BME280;11033;47.490;11.116;2023-02-11T08:27:49;94807.59;;;-1.24;59.69
21742;BME280;11033;47.490;11.116;2023-02-11T08:30:14;94804.31;;;-0.95;58.29
21742;BME280;11033;47.490;11.116;2023-02-11T08:32:40;94795.50;;;-0.91;57.46
21742;BME280;11033;47.490;11.116;2023-02-11T08:35:05;94791.50;;;-0.81;57.45
21742;BME280;11033;47.490;11.116;2023-02-11T08:37:32;94795.75;;;-0.80;56.83
21742;BME280;11033;47.490;11.116;2023-02-11T08:39:57;94792.88;;;-0.58;56.45
21742;BME280;11033;47.490;11.116;2023-02-11T08:42:22;94790.63;;;-0.48;56.02
21742;BME280;11033;47.490;11.116;2023-02-11T08:44:47;94780.03;;;-0.44;55.52
21742;BME280;11033;47.490;11.116;2023-02-11T08:47:13;94786.19;;;-0.15;55.56
21742;BME280;11033;47.490;11.116;2023-02-11T08:49:38;94795.53;;;0.04;55.44
21742;BME280;11033;47.490;11.116;2023-02-11T08:52:05;94800.78;;;0.18;54.41
21742;BME280;11033;47.490;11.116;2023-02-11T08:54:31;94796.94;;;-0.07;54.24
21742;BME280;11033;47.490;11.116;2023-02-11T08:56:56;94798.00;;;0.21;54.44
21742;BME280;11033;47.490;11.116;2023-02-11T08:59:22;94795.63;;;0.32;53.91
21742;BME280;11033;47.490;11.116;2023-02-11T09:01:47;94796.97;;;0.39;53.63
21742;BME280;11033;47.490;11.116;2023-02-11T09:04:13;94803.38;;;0.48;53.40
21742;BME280;11033;47.490;11.116;2023-02-11T09:06:38;94814.84;;;0.74;53.26
21742;BME280;11033;47.490;11.116;2023-02-11T09:09:04;94809.19;;;0.81;52.80
21742;BME280;11033;47.490;11.116;2023-02-11T09:11:31;94804.31;;;0.91;52.57
21742;BME280;11033;47.490;11.116;2023-02-11T09:13:57;94795.78;;;0.89;53.42
21742;BME280;11033;47.490;11.116;2023-02-11T09:16:23;94796.16;;;1.11;53.04
21742;BME280;11033;47.490;11.116;2023-02-11T09:18:49;94791.69;;;1.27;52.78
21742;BME280;11033;47.490;11.116;2023-02-11T09:21:14;94787.47;;;1.41;52.67
21742;BME280;11033;47.490;11.116;2023-02-11T09:23:40;94782.56;;;1.36;53.20
21742;BME280;11033;47.490;11.116;2023-02-11T09:26:15;94780.84;;;1.49;52.03
21742;BME280;11033;47.490;11.116;2023-02-11T09:28:41;94768.53;;;1.53;50.50
21742;BME280;11033;47.490;11.116;2023-02-11T09:31:10;94763.09;;;1.70;50.76
21742;BME280;11033;47.490;11.116;2023-02-11T09:33:36;94763.41;;;1.92;49.30
21742;BME280;11033;47.490;11.116;2023-02-11T09:36:02;94756.34;;;1.95;48.29
21742;BME280;11033;47.490;11.116;2023-02-11T09:38:28;94756.78;;;2.68;48.18
21742;BME280;11033;47.490;11.116;2023-02-11T09:40:53;94763.84;;;3.04;48.19
21742;BME280;11033;47.490;11.116;2023-02-11T09:43:19;94759.69;;;3.27;48.39
21742;BME280;11033;47.490;11.116;2023-02-11T09:45:46;94761.31;;;3.53;46.81
21742;BME280;11033;47.490;11.116;2023-02-11T09:48:19;94766.94;;;4.20;46.32
21742;BME280;11033;47.490;11.116;2023-02-11T09:50:46;94764.09;;;4.47;44.78
21742;BME280;11033;47.490;11.116;2023-02-11T09:53:21;94762.19;;;4.84;43.98
21742;BME280;11033;47.490;11.116;2023-02-11T09:55:48;94771.94;;;4.93;46.26
21742;BME280;11033;47.490;11.116;2023-02-11T09:58:21;94768.94;;;5.33;45.53
21742;BME280;11033;47.490;11.116;2023-02-11T10:06:38;94775.00;;;5.56;45.63
21742;BME280;11033;47.490;11.116;2023-02-11T10:11:40;94757.97;;;5.84;44.34
21742;BME280;11033;47.490;11.116;2023-02-11T10:19:15;94757.63;;;5.77;42.86
21742;BME280;11033;47.490;11.116;2023-02-11T10:24:12;94753.22;;;5.78;41.47
21742;BME280;11033;47.490;11.116;2023-02-11T10:26:38;94753.34;;;5.87;41.25
21742;BME280;11033;47.490;11.116;2023-02-11T10:29:05;94753.00;;;6.03;41.16
21742;BME280;11033;47.490;11.116;2023-02-11T10:31:38;94744.16;;;6.15;42.42
21742;BME280;11033;47.490;11.116;2023-02-11T10:34:04;94742.75;;;6.11;42.90
21742;BME280;11033;47.490;11.116;2023-02-11T10:36:34;94746.59;;;6.28;42.47
21742;BME280;11033;47.490;11.116;2023-02-11T10:39:16;94741.03;;;6.21;43.54
21742;BME280;11033;47.490;11.116;2023-02-11T10:41:43;94755.84;;;6.00;40.39
21742;BME280;11033;47.490;11.116;2023-02-11T10:44:18;94744.94;;;5.95;39.98
21742;BME280;11033;47.490;11.116;2023-02-11T10:46:46;94751.44;;;5.67;37.66
21742;BME280;11033;47.490;11.116;2023-02-11T10:49:14;94740.31;;;5.54;40.12
21742;BME280;11033;47.490;11.116;2023-02-11T10:52:17;94732.44;;;5.65;40.35
21742;BME280;11033;47.490;11.116;2023-02-11T10:55:08;94739.13;;;5.91;42.38
21742;BME280;11033;47.490;11.116;2023-02-11T10:57:33;94731.16;;;5.93;39.85
21742;BME280;11033;47.490;11.116;2023-02-11T11:00:42;94724.94;;;5.71;40.46
21742;BME280;11033;47.490;11.116;2023-02-11T11:02:51;94725.44;;;5.54;40.22
21742;BME280;11033;47.490;11.116;2023-02-11T11:05:18;94712.81;;;5.82;40.11
21742;BME280;11033;47.490;11.116;2023-02-11T11:07:53;94711.31;;;5.90;39.75
21742;BME280;11033;47.490;11.116;2023-02-11T11:15:46;94713.06;;;6.01;40.66
21742;BME280;11033;47.490;11.116;2023-02-11T11:18:30;94703.00;;;6.17;41.37
21742;BME280;11033;47.490;11.116;2023-02-11T11:20:57;94703.34;;;6.56;41.75
21742;BME280;11033;47.490;11.116;2023-02-11T11:23:23;94696.34;;;6.45;40.03
21742;BME280;11033;47.490;11.116;2023-02-11T11:28:37;94679.13;;;7.15;40.13
21742;BME280;11033;47.490;11.116;2023-02-11T11:31:03;94681.34;;;7.50;40.55
21742;BME280;11033;47.490;11.116;2023-02-11T11:33:30;94684.94;;;7.89;39.34
21742;BME280;11033;47.490;11.116;2023-02-11T11:35:59;94683.28;;;8.26;39.72
21742;BME280;11033;47.490;11.116;2023-02-11T11:38:26;94673.41;;;8.59;39.95
21742;BME280;11033;47.490;11.116;2023-02-11T11:43:35;94665.09;;;8.35;40.56
21742;BME280;11033;47.490;11.116;2023-02-11T11:46:01;94666.19;;;8.42;40.65
21742;BME280;11033;47.490;11.116;2023-02-11T11:48:30;94667.59;;;8.46;41.75
21742;BME280;11033;47.490;11.116;2023-02-11T11:51:03;94660.78;;;8.24;38.46
21742;BME280;11033;47.490;11.116;2023-02-11T11:53:38;94667.28;;;8.20;39.04
21742;BME280;11033;47.490;11.116;2023-02-11T11:56:05;94673.06;;;8.23;38.09
21742;BME280;11033;47.490;11.116;2023-02-11T11:58:33;94665.34;;;8.03;37.05
21742;BME280;11033;47.490;11.116;2023-02-11T12:06:05;94671.69;;;8.00;37.43
21742;BME280;11033;47.490;11.116;2023-02-11T12:21:24;94664.47;;;7.83;37.91
21742;BME280;11033;47.490;11.116;2023-02-11T12:32:02;94640.56;;;7.76;39.67
21742;BME280;11033;47.490;11.116;2023-02-11T12:37:01;94641.78;;;7.62;39.26
21742;BME280;11033;47.490;11.116;2023-02-11T12:55:26;94628.81;;;7.61;38.53
21742;BME280;11033;47.490;11.116;2023-02-11T12:57:52;94628.28;;;7.77;39.58
21742;BME280;11033;47.490;11.116;2023-02-11T13:00:21;94619.47;;;7.87;40.22
21742;BME280;11033;47.490;11.116;2023-02-11T13:02:49;94620.31;;;7.88;39.13
21742;BME280;11033;47.490;11.116;2023-02-11T13:05:23;94610.91;;;7.95;39.00
21742;BME280;11033;47.490;11.116;2023-02-11T13:07:50;94620.03;;;7.91;37.63
21742;BME280;11033;47.490;11.116;2023-02-11T13:10:28;94608.16;;;8.06;40.32
21742;BME280;11033;47.490;11.116;2023-02-11T13:12:55;94600.16;;;8.08;39.67
21742;BME280;11033;47.490;11.116;2023-02-11T13:15:54;94597.38;;;7.90;38.13
21742;BME280;11033;47.490;11.116;2023-02-11T13:18:24;94599.88;;;7.91;36.93
21742;BME280;11033;47.490;11.116;2023-02-11T13:26:15;94596.69;;;8.07;37.88
21742;BME280;11033;47.490;11.116;2023-02-11T13:28:47;94587.16;;;8.45;38.76
21742;BME280;11033;47.490;11.116;2023-02-11T13:31:15;94588.75;;;8.75;38.44
21742;BME280;11033;47.490;11.116;2023-02-11T13:33:44;94586.78;;;8.86;37.94
21742;BME280;11033;47.490;11.116;2023-02-11T13:36:20;94581.91;;;8.92;37.43
21742;BME280;11033;47.490;11.116;2023-02-11T13:38:53;94575.97;;;8.89;36.92
21742;BME280;11033;47.490;11.116;2023-02-11T13:41:23;94569.78;;;9.18;36.86
21742;BME280;11033;47.490;11.116;2023-02-11T13:44:01;94573.69;;;9.59;37.36
21742;BME280;11033;47.490;11.116;2023-02-11T13:46:28;94565.06;;;9.67;38.32
21742;BME280;11033;47.490;11.116;2023-02-11T13:48:54;94566.84;;;9.48;37.39
21742;BME280;11033;47.490;11.116;2023-02-11T13:51:35;94564.34;;;9.29;36.87
21742;BME280;11033;47.490;11.116;2023-02-11T13:54:01;94575.19;;;9.44;37.87
21742;BME280;11033;47.490;11.116;2023-02-11T13:58:53;94576.59;;;9.38;38.45
21742;BME280;11033;47.490;11.116;2023-02-11T14:01:38;94573.09;;;9.20;39.90
21742;BME280;11033;47.490;11.116;2023-02-11T14:04:23;94570.66;;;9.36;40.48
21742;BME280;11033;47.490;11.116;2023-02-11T14:07:23;94568.72;;;9.56;38.99
21742;BME280;11033;47.490;11.116;2023-02-11T14:13:05;94567.13;;;10.26;38.70
21742;BME280;11033;47.490;11.116;2023-02-11T14:15:37;94567.44;;;10.23;38.26
21742;BME280;11033;47.490;11.116;2023-02-11T14:18:34;94573.06;;;10.46;39.78
21742;BME280;11033;47.490;11.116;2023-02-11T14:20:48;94567.88;;;11.14;37.64
21742;BME280;11033;47.490;11.116;2023-02-11T14:23:20;94574.78;;;12.32;35.93
21742;BME280;11033;47.490;11.116;2023-02-11T14:25:57;94571.16;;;11.08;36.20
21742;BME280;11033;47.490;11.116;2023-02-11T14:28:25;94572.81;;;10.39;37.93
21742;BME280;11033;47.490;11.116;2023-02-11T14:30:59;94570.06;;;10.23;38.60
21742;BME280;11033;47.490;11.116;2023-02-11T14:33:46;94576.53;;;9.93;38.51
21742;BME280;11033;47.490;11.116;2023-02-11T14:39:05;94568.41;;;10.04;39.85
21742;BME280;11033;47.490;11.116;2023-02-11T14:41:37;94568.69;;;10.01;40.75
21742;BME280;11033;47.490;11.116;2023-02-11T14:44:04;94573.59;;;9.96;40.83
21742;BME280;11033;47.490;11.116;2023-02-11T14:46:30;94579.50;;;11.37;38.70